Potash, Louisiana
Current Conditions -  °F | °C
As of 4:25 PM on Monday 24 Nov 2014 (Local Time) from K1B7 Reporting Station
Clear Clear  
Wind Chill: 64°   Ceiling: Unl
Heat Index: 64°   Visibility: 10mi
Dew Point: 55°   Wind: 13mph
Humidity: 73%   Direction: 350°N
Pressure: 29.88"   Gusts: NA
Location:  29.4927°N, 89.8165°W
Report Text: K1B7 242225Z 35011KT 10SM SKC 18/13 A2988 RMK LAST
Loading
Personal Weather Stations






























Interactive Weather Map New forecast layout! Learn more

10-Day Weather Forecast

Advertisements
Track Severe Weather on mobile